createdAt,value
2023-03-17T00:01:54.953Z,100383.08
2023-03-17T00:04:27.188Z,100384.56
2023-03-17T00:06:55.604Z,100385.89
2023-03-17T00:09:25.620Z,100385.00
2023-03-17T00:11:55.464Z,100387.60
2023-03-17T00:14:24.669Z,100397.02
2023-03-17T00:16:53.595Z,100399.08
2023-03-17T00:19:26.883Z,100402.02
2023-03-17T00:21:59.465Z,100404.63
2023-03-17T00:24:28.711Z,100407.91
2023-03-17T00:26:57.346Z,100408.45
2023-03-17T00:29:27.083Z,100407.07
2023-03-17T00:31:57.401Z,100402.29
2023-03-17T00:34:32.589Z,100403.70
2023-03-17T00:37:02.163Z,100405.18
2023-03-17T00:39:30.598Z,100407.16
2023-03-17T00:42:24.811Z,100402.48
2023-03-17T00:44:55.890Z,100404.73
2023-03-17T00:47:25.239Z,100404.95
2023-03-17T00:49:53.654Z,100403.63
2023-03-17T00:52:23.029Z,100402.23
2023-03-17T00:54:51.537Z,100402.83
2023-03-17T00:57:19.761Z,100409.08
2023-03-17T00:59:50.053Z,100408.55
2023-03-17T01:02:22.862Z,100406.29
2023-03-17T01:04:59.777Z,100409.79
2023-03-17T01:08:05.272Z,100412.33
2023-03-17T01:10:33.922Z,100414.54
2023-03-17T01:13:06.381Z,100415.67
2023-03-17T01:15:35.700Z,100420.94
2023-03-17T01:18:10.263Z,100431.86
2023-03-17T01:20:41.035Z,100437.12
2023-03-17T01:23:10.195Z,100440.06
2023-03-17T01:25:43.419Z,100442.46
2023-03-17T01:28:17.121Z,100443.55
2023-03-17T01:30:49.560Z,100441.95
2023-03-17T01:33:21.270Z,100443.14
2023-03-17T01:35:51.763Z,100446.90
2023-03-17T01:38:20.805Z,100444.79
2023-03-17T01:40:50.077Z,100448.27
2023-03-17T01:43:23.211Z,100446.44
2023-03-17T01:50:06.667Z,100454.74
2023-03-17T01:52:39.572Z,100452.48
2023-03-17T01:55:14.615Z,100452.59
2023-03-17T01:57:51.556Z,100458.04
2023-03-17T02:00:21.015Z,100462.30
2023-03-17T02:02:51.503Z,100470.27
2023-03-17T02:05:26.650Z,100472.50
2023-03-17T02:07:55.808Z,100477.77
2023-03-17T02:10:30.386Z,100482.66
2023-03-17T02:13:00.173Z,100481.71
2023-03-17T02:15:38.033Z,100482.69
2023-03-17T02:18:07.983Z,100488.80
2023-03-17T02:20:40.221Z,100489.80
2023-03-17T02:23:12.600Z,100494.62
2023-03-17T02:25:42.744Z,100495.72
2023-03-17T02:28:14.419Z,100492.53
2023-03-17T02:30:43.455Z,100490.64
2023-03-17T02:33:13.060Z,100492.31
2023-03-17T02:35:42.485Z,100499.98
2023-03-17T02:38:53.130Z,100501.13
2023-03-17T02:45:03.555Z,100503.42
2023-03-17T02:47:33.310Z,100509.92
2023-03-17T02:50:02.282Z,100507.05
2023-03-17T02:52:34.318Z,100505.95
2023-03-17T02:55:08.480Z,100509.95
2023-03-17T02:57:38.366Z,100508.52
2023-03-17T03:00:08.575Z,100509.20
2023-03-17T03:02:38.422Z,100508.81
2023-03-17T03:05:09.025Z,100508.87
2023-03-17T03:07:37.929Z,100511.61
2023-03-17T03:10:08.086Z,100514.43
2023-03-17T03:12:36.628Z,100516.43
2023-03-17T03:15:23.716Z,100521.33
2023-03-17T03:17:52.336Z,100522.14
2023-03-17T03:20:22.198Z,100524.27
2023-03-17T03:22:53.226Z,100520.99
2023-03-17T03:25:22.390Z,100522.13
2023-03-17T03:27:52.557Z,100525.66
2023-03-17T03:30:21.868Z,100533.75
2023-03-17T03:32:50.502Z,100541.84
2023-03-17T03:35:20.173Z,100542.48
2023-03-17T03:37:51.240Z,100550.31
2023-03-17T03:40:21.226Z,100550.30
2023-03-17T03:42:49.837Z,100555.68
2023-03-17T03:45:18.390Z,100560.73
2023-03-17T03:47:47.912Z,100561.98
2023-03-17T03:50:16.455Z,100570.30
2023-03-17T03:52:45.858Z,100570.07
2023-03-17T03:55:18.299Z,100571.73
2023-03-17T03:57:47.192Z,100575.27
2023-03-17T04:00:18.049Z,100577.51
2023-03-17T04:02:48.120Z,100573.83
2023-03-17T04:05:18.720Z,100576.48
2023-03-17T04:07:48.249Z,100582.33
2023-03-17T04:10:17.131Z,100585.60
2023-03-17T04:12:48.351Z,100590.20
2023-03-17T04:15:18.110Z,100597.05
2023-03-17T04:17:46.645Z,100596.71
2023-03-17T04:20:15.615Z,100600.01
2023-03-17T04:22:44.254Z,100599.64
2023-03-17T04:25:14.451Z,100594.52
2023-03-17T04:27:42.903Z,100594.45
2023-03-17T04:30:14.001Z,100595.41
2023-03-17T04:32:42.613Z,100597.13
2023-03-17T04:35:16.621Z,100603.58
2023-03-17T04:37:51.327Z,100607.15
2023-03-17T04:40:26.867Z,100609.33
2023-03-17T04:42:56.828Z,100607.59
2023-03-17T04:45:26.280Z,100609.77
2023-03-17T04:47:56.084Z,100612.65
2023-03-17T04:50:27.879Z,100615.63
2023-03-17T04:52:57.217Z,100617.92
2023-03-17T04:55:27.994Z,100618.14
2023-03-17T04:57:57.612Z,100619.15
2023-03-17T05:00:26.329Z,100623.73
2023-03-17T05:02:54.774Z,100629.26
2023-03-17T05:05:25.837Z,100626.75
2023-03-17T05:07:55.589Z,100630.23
2023-03-17T05:10:24.265Z,100633.02
2023-03-17T05:12:54.397Z,100640.18
2023-03-17T05:15:23.530Z,100640.81
2023-03-17T05:17:51.952Z,100643.82
2023-03-17T05:20:21.640Z,100640.73
2023-03-17T05:22:50.317Z,100645.14
2023-03-17T05:25:26.976Z,100649.45
2023-03-17T05:27:55.445Z,100652.30
2023-03-17T05:30:26.994Z,100660.47
2023-03-17T05:32:56.109Z,100654.90
2023-03-17T05:35:27.885Z,100658.97
2023-03-17T05:37:59.431Z,100659.73
2023-03-17T05:40:31.912Z,100665.60
2023-03-17T05:43:01.598Z,100669.50
2023-03-17T05:45:30.816Z,100671.98
2023-03-17T05:48:04.994Z,100677.77
2023-03-17T05:50:42.282Z,100679.11
2023-03-17T05:53:16.017Z,100679.77
2023-03-17T05:55:45.038Z,100682.49
2023-03-17T05:58:16.009Z,100684.27
2023-03-17T06:00:44.701Z,100681.71
2023-03-17T06:03:13.407Z,100681.12
2023-03-17T06:05:43.447Z,100676.91
2023-03-17T06:08:12.035Z,100679.65
2023-03-17T06:10:42.584Z,100680.36
2023-03-17T06:13:11.945Z,100682.55
2023-03-17T06:15:43.315Z,100684.52
2023-03-17T06:18:11.969Z,100686.33
2023-03-17T06:20:44.555Z,100688.29
2023-03-17T06:23:13.434Z,100689.77
2023-03-17T06:25:41.977Z,100689.69
2023-03-17T06:28:12.372Z,100686.23
2023-03-17T06:30:44.752Z,100691.34
2023-03-17T06:33:19.460Z,100689.81
2023-03-17T06:35:48.550Z,100691.58
2023-03-17T06:38:19.010Z,100692.17
2023-03-17T06:40:53.360Z,100693.27
2023-03-17T06:43:25.142Z,100696.56
2023-03-17T06:45:56.627Z,100700.80
2023-03-17T06:48:25.412Z,100697.77
2023-03-17T06:50:53.859Z,100699.95
2023-03-17T06:53:24.090Z,100701.57
2023-03-17T06:55:53.299Z,100704.20
2023-03-17T06:58:24.114Z,100713.40
2023-03-17T07:01:00.743Z,100715.91
2023-03-17T07:03:31.612Z,100715.46
2023-03-17T07:06:01.140Z,100718.90
2023-03-17T07:08:53.023Z,100720.81
2023-03-17T07:11:35.780Z,100726.48
2023-03-17T07:14:38.459Z,100728.16
2023-03-17T07:17:09.123Z,100730.55
2023-03-17T07:20:17.814Z,100727.98
2023-03-17T07:22:49.885Z,100726.51
2023-03-17T07:25:27.106Z,100729.98
2023-03-17T07:28:23.903Z,100730.36
2023-03-17T07:30:55.004Z,100734.44
2023-03-17T07:33:27.490Z,100733.73
2023-03-17T07:36:18.724Z,100733.42
2023-03-17T07:39:12.192Z,100735.14
2023-03-17T07:41:52.224Z,100741.63
2023-03-17T07:44:41.804Z,100749.02
2023-03-17T07:47:21.372Z,100746.20
2023-03-17T07:50:36.964Z,100746.08
2023-03-17T07:58:42.891Z,100744.63
2023-03-17T08:01:33.210Z,100750.10
2023-03-17T08:04:17.393Z,100755.63
2023-03-17T08:07:00.054Z,100753.17
2023-03-17T08:09:30.349Z,100755.04
2023-03-17T08:12:01.962Z,100758.19
2023-03-17T08:14:48.312Z,100763.77
2023-03-17T08:17:35.874Z,100770.11
2023-03-17T08:20:36.154Z,100767.73
2023-03-17T08:23:19.190Z,100774.52
2023-03-17T08:26:29.106Z,100774.02
2023-03-17T08:29:09.987Z,100777.46
2023-03-17T08:31:41.470Z,100778.37
2023-03-17T08:34:13.462Z,100776.07
2023-03-17T08:36:43.352Z,100774.95
2023-03-17T08:39:12.186Z,100778.00
2023-03-17T08:42:05.133Z,100779.76
2023-03-17T08:44:47.126Z,100782.84
2023-03-17T08:47:26.572Z,100778.36
2023-03-17T08:50:14.431Z,100777.59
2023-03-17T08:53:06.126Z,100775.32
2023-03-17T08:55:39.986Z,100774.99
2023-03-17T08:58:29.262Z,100772.64
2023-03-17T09:01:01.458Z,100778.86
2023-03-17T09:03:31.120Z,100781.63
2023-03-17T09:06:01.158Z,100785.96
2023-03-17T09:08:30.126Z,100786.78
2023-03-17T09:10:58.966Z,100797.23
2023-03-17T09:13:29.683Z,100794.27
2023-03-17T09:16:00.179Z,100796.55
2023-03-17T09:18:31.615Z,100793.94
2023-03-17T09:21:23.352Z,100799.61
2023-03-17T09:23:51.876Z,100803.92
2023-03-17T09:26:20.735Z,100804.67
2023-03-17T09:28:50.085Z,100809.63
2023-03-17T09:31:20.052Z,100812.59
2023-03-17T09:33:52.944Z,100814.65
2023-03-17T09:36:21.922Z,100817.86
2023-03-17T09:38:51.649Z,100813.47
2023-03-17T09:41:38.176Z,100816.36
2023-03-17T09:44:17.162Z,100825.49
2023-03-17T09:46:49.034Z,100831.70
2023-03-17T09:49:21.080Z,100837.52
2023-03-17T09:51:52.321Z,100838.81
2023-03-17T09:54:40.315Z,100843.45
2023-03-17T09:57:13.992Z,100846.59
2023-03-17T09:59:44.143Z,100844.79
2023-03-17T10:02:19.263Z,100842.80
2023-03-17T10:04:49.104Z,100845.97
2023-03-17T10:07:19.988Z,100842.36
2023-03-17T10:09:54.083Z,100839.97
2023-03-17T10:12:27.901Z,100840.37
2023-03-17T10:15:07.123Z,100840.31
2023-03-17T10:17:37.095Z,100839.84
2023-03-17T10:20:11.944Z,100843.65
2023-03-17T10:22:42.992Z,100841.51
2023-03-17T10:25:18.276Z,100839.98
2023-03-17T10:27:53.241Z,100839.55
2023-03-17T10:30:22.451Z,100843.64
2023-03-17T10:32:52.608Z,100845.40
2023-03-17T10:35:23.191Z,100847.58
2023-03-17T10:37:58.913Z,100845.23
2023-03-17T10:40:36.468Z,100843.15
2023-03-17T10:43:08.325Z,100842.24
2023-03-17T10:45:45.217Z,100842.90
2023-03-17T10:48:17.772Z,100845.88
2023-03-17T10:50:48.601Z,100850.31
2023-03-17T10:53:28.471Z,100856.09
2023-03-17T10:56:03.716Z,100856.98
2023-03-17T10:58:43.835Z,100861.74
2023-03-17T11:01:28.123Z,100866.95
2023-03-17T11:03:57.815Z,100867.42
2023-03-17T11:06:31.445Z,100862.50
2023-03-17T11:09:02.718Z,100865.30
2023-03-17T11:11:44.700Z,100866.33
2023-03-17T11:14:14.654Z,100866.02
2023-03-17T11:16:50.971Z,100871.40
2023-03-17T11:19:43.522Z,100867.06
2023-03-17T11:22:40.507Z,100866.58
2023-03-17T11:25:17.863Z,100869.52
2023-03-17T11:27:50.198Z,100871.60
2023-03-17T11:30:37.610Z,100872.52
2023-03-17T11:33:25.646Z,100873.66
2023-03-17T11:36:01.282Z,100873.70
2023-03-17T11:38:31.331Z,100877.31
2023-03-17T11:41:18.437Z,100882.48
2023-03-17T11:43:47.220Z,100882.35
2023-03-17T11:46:19.175Z,100884.48
2023-03-17T11:48:48.447Z,100886.29
2023-03-17T11:51:23.142Z,100892.23
2023-03-17T11:54:10.078Z,100894.98
2023-03-17T11:56:39.831Z,100893.82
2023-03-17T11:59:14.358Z,100898.80
2023-03-17T12:01:49.389Z,100899.66
2023-03-17T12:04:20.468Z,100898.81
2023-03-17T12:06:53.402Z,100899.68
2023-03-17T12:09:42.625Z,100902.25
2023-03-17T12:12:11.470Z,100902.48
2023-03-17T12:14:49.002Z,100902.86
2023-03-17T12:17:27.126Z,100907.48
2023-03-17T12:20:09.894Z,100911.08
2023-03-17T12:22:43.358Z,100915.18
2023-03-17T12:25:16.747Z,100920.11
2023-03-17T12:27:54.859Z,100921.00
2023-03-17T12:30:29.440Z,100923.29
2023-03-17T12:33:01.570Z,100918.59
2023-03-17T12:35:32.423Z,100923.20
2023-03-17T12:38:03.236Z,100923.95
2023-03-17T12:40:43.046Z,100925.08
2023-03-17T12:43:18.601Z,100925.05
2023-03-17T12:45:57.557Z,100930.94
2023-03-17T12:48:30.019Z,100934.02
2023-03-17T12:51:17.829Z,100936.81
2023-03-17T12:53:48.031Z,100939.56
2023-03-17T12:56:36.326Z,100944.31
2023-03-17T12:59:09.328Z,100948.09
2023-03-17T13:01:38.858Z,100949.46
2023-03-17T13:04:07.436Z,100947.91
2023-03-17T13:06:43.250Z,100954.45
2023-03-17T13:09:31.832Z,100951.80
2023-03-17T13:12:01.528Z,100954.20
2023-03-17T13:14:31.183Z,100955.54
2023-03-17T13:17:05.137Z,100952.71
2023-03-17T13:19:33.823Z,100951.91
2023-03-17T13:22:07.117Z,100949.35
2023-03-17T13:24:47.864Z,100949.20
2023-03-17T13:27:31.115Z,100952.81
2023-03-17T13:30:01.558Z,100953.77
2023-03-17T13:32:32.993Z,100960.28
2023-03-17T13:35:01.867Z,100960.98
2023-03-17T13:37:30.619Z,100960.76
2023-03-17T13:40:11.276Z,100965.48
2023-03-17T13:42:44.831Z,100963.20
2023-03-17T13:45:33.622Z,100968.52
2023-03-17T13:48:20.842Z,100960.39
2023-03-17T13:50:49.249Z,100956.05
2023-03-17T13:53:17.734Z,100953.25
2023-03-17T13:56:23.650Z,100955.75
2023-03-17T13:59:05.541Z,100960.11
2023-03-17T14:02:00.297Z,100973.38
2023-03-17T14:04:30.441Z,100979.28
2023-03-17T14:06:59.959Z,100981.58
2023-03-17T14:09:36.902Z,100992.09
2023-03-17T14:12:26.509Z,100997.96
2023-03-17T14:15:08.488Z,101002.37
2023-03-17T14:17:45.173Z,101009.08
2023-03-17T14:20:22.894Z,101013.15
2023-03-17T14:23:02.254Z,101015.52
2023-03-17T14:25:38.445Z,101018.61
2023-03-17T14:28:15.109Z,101027.20
2023-03-17T14:30:55.427Z,101023.70
2023-03-17T14:33:26.750Z,101024.87
2023-03-17T14:35:57.274Z,101022.78
2023-03-17T14:38:28.079Z,101025.70
2023-03-17T14:41:01.192Z,101030.61
2023-03-17T14:43:30.943Z,101037.82
2023-03-17T14:46:08.207Z,101034.03
2023-03-17T14:48:38.213Z,101037.84
2023-03-17T14:51:11.256Z,101044.04
2023-03-17T14:53:40.853Z,101049.51
2023-03-17T14:56:09.403Z,101051.42
2023-03-17T14:58:48.861Z,101050.49
2023-03-17T15:01:18.853Z,101054.64
2023-03-17T15:03:57.379Z,101051.94
2023-03-17T15:06:27.793Z,101058.45
2023-03-17T15:09:00.776Z,101060.28
2023-03-17T15:11:41.171Z,101068.50
2023-03-17T15:14:40.672Z,101068.98
2023-03-17T15:17:20.441Z,101068.30
2023-03-17T15:19:57.592Z,101072.23
2023-03-17T15:22:38.260Z,101069.72
2023-03-17T15:25:28.798Z,101073.96
2023-03-17T15:27:59.418Z,101078.30
2023-03-17T15:30:46.247Z,101077.31
2023-03-17T15:33:29.485Z,101072.84
2023-03-17T15:36:00.525Z,101069.05
2023-03-17T15:38:49.058Z,101070.67
2023-03-17T15:41:19.855Z,101072.80
2023-03-17T15:43:55.641Z,101074.55
2023-03-17T15:46:25.178Z,101072.13
2023-03-17T15:49:00.026Z,101076.52
2023-03-17T15:51:35.849Z,101076.97
2023-03-17T15:54:06.069Z,101081.60
2023-03-17T15:56:38.835Z,101081.56
2023-03-17T15:59:07.278Z,101084.13
2023-03-17T16:01:36.688Z,101088.67
2023-03-17T16:04:57.036Z,101098.40
2023-03-17T16:07:27.346Z,101108.45
2023-03-17T16:09:56.080Z,101112.14
2023-03-17T16:12:28.154Z,101117.64
2023-03-17T16:15:05.448Z,101120.91
2023-03-17T16:17:39.545Z,101122.68
2023-03-17T16:20:32.397Z,101123.08
2023-03-17T16:23:14.924Z,101122.93
2023-03-17T16:25:48.502Z,101130.34
2023-03-17T16:28:21.198Z,101135.83
2023-03-17T16:31:15.144Z,101142.07
2023-03-17T16:33:55.380Z,101140.84
2023-03-17T16:36:27.231Z,101141.40
2023-03-17T16:38:58.068Z,101147.11
2023-03-17T16:41:27.786Z,101147.26
2023-03-17T16:44:01.943Z,101150.23
2023-03-17T16:46:35.079Z,101146.77
2023-03-17T16:49:07.773Z,101154.71
2023-03-17T16:51:36.590Z,101160.81
2023-03-17T16:54:06.806Z,101158.02
2023-03-17T16:56:35.690Z,101164.04
2023-03-17T16:59:14.422Z,101168.78
2023-03-17T17:01:43.865Z,101171.78
2023-03-17T17:04:14.182Z,101181.20
2023-03-17T17:06:42.763Z,101185.16
2023-03-17T17:09:11.681Z,101190.58
2023-03-17T17:11:40.372Z,101195.70
2023-03-17T17:14:09.163Z,101196.55
2023-03-17T17:16:40.691Z,101199.50
2023-03-17T17:19:16.958Z,101205.95
2023-03-17T17:21:46.890Z,101206.38
2023-03-17T17:24:15.855Z,101209.45
2023-03-17T17:26:45.059Z,101209.62
2023-03-17T17:29:15.152Z,101209.19
2023-03-17T17:31:43.950Z,101212.30
2023-03-17T17:34:15.424Z,101214.52
2023-03-17T17:36:44.375Z,101214.54
2023-03-17T17:39:20.626Z,101211.73
2023-03-17T17:41:54.635Z,101213.98
2023-03-17T17:44:23.355Z,101213.53
2023-03-17T17:47:02.792Z,101214.77
2023-03-17T17:49:32.309Z,101215.11
2023-03-17T17:52:06.942Z,101218.77
2023-03-17T17:54:39.911Z,101215.75
2023-03-17T17:57:16.437Z,101210.06
2023-03-17T17:59:54.372Z,101210.56
2023-03-17T18:02:36.783Z,101205.62
2023-03-17T18:05:14.353Z,101206.49
2023-03-17T18:07:43.229Z,101209.04
2023-03-17T18:10:19.025Z,101215.48
2023-03-17T18:12:51.172Z,101215.25
2023-03-17T18:15:24.161Z,101217.11
2023-03-17T18:17:55.025Z,101220.53
2023-03-17T18:20:24.253Z,101217.31
2023-03-17T18:22:53.212Z,101216.11
2023-03-17T18:25:25.661Z,101221.38
2023-03-17T18:27:58.199Z,101224.80
2023-03-17T18:30:28.697Z,101229.14
2023-03-17T18:32:59.783Z,101237.39
2023-03-17T18:35:29.684Z,101236.48
2023-03-17T18:37:59.085Z,101235.73
2023-03-17T18:40:28.803Z,101239.94
2023-03-17T18:43:02.845Z,101239.47
2023-03-17T18:45:34.284Z,101238.73
2023-03-17T18:48:09.354Z,101240.50
2023-03-17T18:50:42.409Z,101243.00
2023-03-17T18:53:14.872Z,101247.47
2023-03-17T18:55:52.120Z,101249.74
2023-03-17T18:58:20.922Z,101252.45
2023-03-17T19:00:53.675Z,101252.44
2023-03-17T19:03:22.553Z,101253.17
2023-03-17T19:05:51.935Z,101251.27
2023-03-17T19:08:21.683Z,101252.52
2023-03-17T19:10:50.786Z,101251.48
2023-03-17T19:13:19.292Z,101249.79
2023-03-17T19:15:52.392Z,101249.27
2023-03-17T19:18:23.253Z,101246.09
2023-03-17T19:20:53.785Z,101249.29
2023-03-17T19:23:27.122Z,101250.38
2023-03-17T19:25:57.016Z,101248.59
2023-03-17T19:28:32.506Z,101249.42
2023-03-17T19:31:25.123Z,101247.86
2023-03-17T19:34:05.604Z,101250.99
2023-03-17T19:37:01.876Z,101255.09
2023-03-17T19:39:56.661Z,101250.95
2023-03-17T19:47:11.632Z,101250.85
2023-03-17T19:50:13.937Z,101248.40
2023-03-17T19:52:50.068Z,101247.85
2023-03-17T19:55:25.358Z,101244.42
2023-03-17T19:57:58.175Z,101248.99
2023-03-17T20:00:28.265Z,101244.29
2023-03-17T20:02:57.001Z,101240.19
2023-03-17T20:05:27.253Z,101242.13
2023-03-17T20:08:01.961Z,101242.73
2023-03-17T20:10:31.144Z,101240.38
2023-03-17T20:13:08.958Z,101241.65
2023-03-17T20:15:40.199Z,101238.91
2023-03-17T20:18:11.501Z,101239.04
2023-03-17T20:20:49.641Z,101242.95
2023-03-17T20:23:18.844Z,101237.15
2023-03-17T20:25:57.710Z,101239.71
2023-03-17T20:28:32.084Z,101239.69
2023-03-17T20:31:08.413Z,101239.79
2023-03-17T20:33:46.419Z,101234.85
2023-03-17T20:36:18.069Z,101235.63
2023-03-17T20:38:52.055Z,101245.81
2023-03-17T20:41:30.632Z,101245.41
2023-03-17T20:44:05.788Z,101255.17
2023-03-17T20:46:39.201Z,101248.05
2023-03-17T20:54:31.315Z,101251.27
2023-03-17T20:58:00.590Z,101250.63
2023-03-17T21:00:36.805Z,101249.36
2023-03-17T21:03:29.371Z,101247.02
2023-03-17T21:05:59.385Z,101247.84
2023-03-17T21:09:11.708Z,101250.02
2023-03-17T21:50:08.156Z,101273.70
2023-03-17T21:56:14.778Z,101264.20
